Time;durP1;ratioP1;P1;durP2;ratioP2;P2;SDS_P1;SDS_P2;PMS_P1;PMS_P2;Temp;Humidity;BMP_temperature;BMP_pressure;BME280_temperature;BME280_humidity;BME280_pressure;Samples;Min_cycle;Max_cycle;Signal;HPM_P1;HPM_P2
2022/10/23 00:00:26;;;;;;;15.97;7.70;;;;;;;11.77;100.00;101195.38;5007504;29;20095;-73
2022/10/23 00:02:58;;;;;;;16.83;6.93;;;;;;;11.76;100.00;101185.84;5007164;29;20070;-73
2022/10/23 00:05:30;;;;;;;11.40;6.77;;;;;;;11.70;100.00;101191.97;5007252;29;20035;-73
2022/10/23 00:08:01;;;;;;;15.17;6.83;;;;;;;11.71;100.00;101179.81;5007447;29;20375;-73
2022/10/23 00:10:33;;;;;;;16.57;7.07;;;;;;;11.78;100.00;101178.84;5007488;29;20135;-72
2022/10/23 00:13:04;;;;;;;14.83;7.57;;;;;;;11.77;100.00;101188.44;5007603;29;20042;-73
2022/10/23 00:15:36;;;;;;;20.97;8.03;;;;;;;11.77;100.00;101179.72;5006921;29;20078;-73
2022/10/23 00:18:07;;;;;;;17.20;7.17;;;;;;;11.73;100.00;101180.63;5006890;29;20332;-72
2022/10/23 00:20:38;;;;;;;17.33;7.70;;;;;;;11.76;100.00;101186.69;5008541;29;20042;-73
2022/10/23 00:23:10;;;;;;;12.37;7.57;;;;;;;11.79;100.00;101185.78;5007698;29;20046;-73
2022/10/23 00:25:41;;;;;;;16.30;7.73;;;;;;;11.77;100.00;101188.44;5007903;29;20043;-73
2022/10/23 00:28:13;;;;;;;13.77;7.43;;;;;;;11.75;100.00;101184.97;5005233;29;20047;-73
2022/10/23 00:30:44;;;;;;;19.10;7.87;;;;;;;11.78;100.00;101191.91;5007705;29;20118;-73
2022/10/23 00:33:15;;;;;;;14.10;7.43;;;;;;;11.73;100.00;101180.63;5007381;29;20104;-73
2022/10/23 00:35:47;;;;;;;20.53;8.33;;;;;;;11.69;100.00;101185.03;5007764;29;20555;-73
2022/10/23 00:38:18;;;;;;;13.53;7.40;;;;;;;11.66;100.00;101182.47;5007343;29;20115;-73
2022/10/23 00:40:50;;;;;;;16.23;9.00;;;;;;;11.63;100.00;101179.88;5007716;29;20454;-73
2022/10/23 00:43:25;;;;;;;16.67;7.57;;;;;;;11.72;100.00;101184.13;5006561;29;20046;-73
2022/10/23 00:45:57;;;;;;;14.25;8.48;;;;;;;11.67;100.00;101171.13;5005759;29;20043;-72
2022/10/23 00:48:29;;;;;;;12.68;7.40;;;;;;;11.76;100.00;101165.78;5007012;29;20110;-73
2022/10/23 00:51:00;;;;;;;17.63;8.60;;;;;;;11.70;100.00;101173.69;5007120;29;20432;-73
2022/10/23 00:53:33;;;;;;;12.90;7.23;;;;;;;11.71;100.00;101177.19;5007361;29;20035;-73
2022/10/23 00:56:04;;;;;;;13.15;6.95;;;;;;;11.79;100.00;101181.44;5007166;29;20066;-73
2022/10/23 00:58:36;;;;;;;14.30;7.77;;;;;;;11.70;100.00;101175.44;5007392;29;20114;-73
2022/10/23 01:01:19;;;;;;;16.53;8.00;;;;;;;11.71;100.00;101179.81;5006459;29;20042;-73
2022/10/23 01:03:50;;;;;;;;;;;;;;;11.75;100.00;101178.88;5008976;29;20050;-74
2022/10/23 01:06:57;;;;;;;16.45;8.30;;;;;;;11.72;100.00;101171.06;5012657;29;19917;-74
2022/10/23 01:09:36;;;;;;;15.43;7.13;;;;;;;11.69;100.00;101166.75;5020820;29;20101;-74
2022/10/23 01:12:46;;;;;;;17.48;7.75;;;;;;;11.62;100.00;101165.97;5013433;29;20050;-74
2022/10/23 01:15:43;;;;;;;16.58;7.82;;;;;;;11.57;100.00;101167.75;5005632;29;20127;-74
2022/10/23 01:18:24;;;;;;;13.68;7.72;;;;;;;11.49;100.00;101166.97;5006489;29;20179;-74
2022/10/23 01:21:04;;;;;;;23.67;14.43;;;;;;;11.47;100.00;101161.75;5006331;29;20066;-72
2022/10/23 01:23:52;;;;;;;15.48;8.18;;;;;;;11.40;100.00;101170.53;5005605;29;20462;-73
2022/10/23 01:26:39;;;;;;;20.92;8.57;;;;;;;11.34;100.00;101161.91;5006239;29;20038;-73
2022/10/23 01:29:32;;;;;;;15.50;7.80;;;;;;;11.32;100.00;101159.31;5005937;29;20138;-73
2022/10/23 01:32:46;;;;;;;18.17;7.55;;;;;;;11.28;100.00;101153.22;5005818;29;20030;-73
2022/10/23 01:35:27;;;;;;;14.13;6.68;;;;;;;11.34;100.00;101152.31;5005654;29;20433;-73
2022/10/23 01:38:26;;;;;;;17.65;7.95;;;;;;;11.27;100.00;101146.31;5006297;29;20034;-73
2022/10/23 01:41:13;;;;;;;12.63;6.80;;;;;;;11.26;100.00;101141.09;5005527;29;20436;-73
2022/10/23 01:44:06;;;;;;;12.48;6.93;;;;;;;11.23;100.00;101138.53;5005526;29;20512;-73
2022/10/23 01:46:39;;;;;;;19.80;7.70;;;;;;;11.22;100.00;101135.06;5005655;29;20051;-73
2022/10/23 01:49:12;;;;;;;13.25;7.05;;;;;;;11.27;100.00;101129.75;5005337;29;20062;-73
2022/10/23 01:51:50;;;;;;;12.55;7.07;;;;;;;11.23;100.00;101123.72;5005818;29;20046;-73
2022/10/23 01:54:27;;;;;;;15.68;7.43;;;;;;;11.23;100.00;101122.88;5005882;29;20030;-73
2022/10/23 01:57:01;;;;;;;17.25;7.95;;;;;;;11.28;100.00;101121.06;5005478;29;20034;-73
2022/10/23 01:59:38;;;;;;;9.85;6.25;;;;;;;11.20;100.00;101122.88;5005479;29;20046;-74
2022/10/23 02:02:12;;;;;;;16.38;7.45;;;;;;;11.19;100.00;101119.44;5005515;29;20063;-73
2022/10/23 02:04:59;;;;;;;15.02;6.90;;;;;;;11.18;100.00;101127.28;5005233;29;20039;-73
2022/10/23 02:07:30;;;;;;;10.38;5.97;;;;;;;11.12;100.00;101122.97;4990024;29;20043;-73
2022/10/23 02:10:07;;;;;;;14.33;7.07;;;;;;;11.10;100.00;101119.50;5005351;29;20388;-73
2022/10/23 02:13:04;;;;;;;12.88;6.68;;;;;;;11.13;100.00;101122.94;5005316;29;20067;-73
2022/10/23 02:15:43;;;;;;;18.42;7.47;;;;;;;11.16;100.00;101122.06;5004210;29;20041;-73
2022/10/23 02:18:26;;;;;;;19.13;6.82;;;;;;;11.18;100.00;101106.41;5004967;29;20117;-73
2022/10/23 02:21:01;;;;;;;;;;;;;;;11.19;100.00;101116.81;5005483;29;20035;-73
2022/10/23 02:23:38;;;;;;;15.55;6.95;;;;;;;11.18;100.00;101122.91;5005211;29;20238;-73
2022/10/23 02:26:39;;;;;;;15.68;7.45;;;;;;;11.23;100.00;101118.50;5005200;29;20047;-73
2022/10/23 02:29:18;;;;;;;15.25;7.00;;;;;;;11.22;100.00;101100.25;5016848;29;20115;-72
2022/10/23 02:31:49;;;;;;;17.75;6.90;;;;;;;11.26;100.00;101107.19;5005163;29;20085;-73
2022/10/23 02:34:21;;;;;;;15.40;8.00;;;;;;;11.29;100.00;101101.94;5004800;29;20066;-73
2022/10/23 02:36:52;;;;;;;20.87;7.63;;;;;;;11.29;100.00;101097.56;5018362;29;20067;-73
2022/10/23 02:39:26;;;;;;;14.77;7.77;;;;;;;11.31;100.00;101087.97;5005000;29;20046;-73
2022/10/23 02:42:27;;;;;;;16.40;8.13;;;;;;;11.34;100.00;101075.78;5004693;29;20046;-73
2022/10/23 02:45:07;;;;;;;17.50;8.05;;;;;;;11.34;100.00;101073.19;5004502;29;20043;-74
2022/10/23 02:48:16;;;;;;;19.10;7.43;;;;;;;11.36;100.00;101061.81;5005563;29;20141;-73
2022/10/23 02:50:58;;;;;;;19.40;8.30;;;;;;;11.34;100.00;101053.16;5004891;29;20114;-72
2022/10/23 02:53:43;;;;;;;15.98;7.32;;;;;;;11.38;100.00;101040.91;5005350;29;20035;-73
2022/10/23 02:56:26;;;;;;;14.75;7.65;;;;;;;11.41;100.00;101035.66;5005395;29;20031;-72
2022/10/23 02:59:19;;;;;;;16.70;7.25;;;;;;;11.43;100.00;101031.28;5004985;29;20030;-73
2022/10/23 03:01:54;;;;;;;19.65;8.35;;;;;;;11.41;100.00;101027.84;5004731;29;20516;-73
2022/10/23 03:04:27;;;;;;;13.65;7.65;;;;;;;11.46;100.00;101028.63;5004666;29;20395;-73
2022/10/23 03:06:59;;;;;;;17.05;8.15;;;;;;;11.44;100.00;101026.03;5004740;29;20043;-73
2022/10/23 03:09:30;;;;;;;18.77;7.80;;;;;;;11.43;100.00;101020.84;5004870;29;20476;-73
2022/10/23 03:12:02;;;;;;;14.67;8.13;;;;;;;11.43;100.00;101015.63;5004382;29;20067;-73
2022/10/23 03:14:33;;;;;;;14.17;7.33;;;;;;;11.43;100.00;101013.88;5004956;29;20474;-73
2022/10/23 03:17:05;;;;;;;19.00;8.03;;;;;;;11.42;100.00;101009.53;5004425;29;20444;-72
2022/10/23 03:19:36;;;;;;;16.47;8.17;;;;;;;11.43;100.00;101010.41;5003030;29;20038;-72
2022/10/23 03:22:08;;;;;;;18.23;7.63;;;;;;;11.42;100.00;101003.47;5003101;29;20503;-73
2022/10/23 03:24:39;;;;;;;15.90;9.73;;;;;;;11.42;100.00;101001.72;5004292;29;20027;-72
2022/10/23 03:27:10;;;;;;;19.97;7.90;;;;;;;11.41;100.00;101006.94;5004825;29;20125;-72
2022/10/23 03:29:42;;;;;;;15.80;7.60;;;;;;;11.41;100.00;101005.19;5004237;29;20039;-73
2022/10/23 03:32:13;;;;;;;16.70;9.13;;;;;;;11.42;100.00;101003.47;5003020;29;20099;-74
2022/10/23 03:34:44;;;;;;;23.73;8.93;;;;;;;11.43;100.00;101002.56;5002972;29;20479;-74
2022/10/23 03:37:16;;;;;;;14.70;7.03;;;;;;;11.45;100.00;100993.00;5004702;29;20035;-73
2022/10/23 03:39:47;;;;;;;13.40;7.87;;;;;;;11.46;100.00;100999.91;5004425;29;20062;-73
2022/10/23 03:42:19;;;;;;;14.73;8.13;;;;;;;11.49;100.00;100989.44;5004159;29;20039;-73
2022/10/23 03:44:50;;;;;;;13.63;8.07;;;;;;;11.47;100.00;100986.00;5004717;29;20062;-73
2022/10/23 03:47:21;;;;;;;13.93;7.50;;;;;;;11.49;100.00;100987.72;5004158;29;20055;-73
2022/10/23 03:49:53;;;;;;;16.80;7.87;;;;;;;11.53;100.00;100990.25;5004279;29;20130;-73
2022/10/23 03:52:24;;;;;;;18.87;8.77;;;;;;;11.54;100.00;100977.19;5003536;29;20073;-73
2022/10/23 03:54:55;;;;;;;14.30;8.20;;;;;;;11.55;100.00;100975.44;5004829;29;20039;-73
2022/10/23 03:57:27;;;;;;;13.87;7.17;;;;;;;11.57;100.00;100987.59;5004945;29;20605;-73
2022/10/23 03:59:58;;;;;;;13.00;8.40;;;;;;;11.53;100.00;100975.47;5004937;29;20055;-72
2022/10/23 04:02:29;;;;;;;15.77;8.03;;;;;;;11.60;100.00;100965.81;5005048;29;20433;-73
2022/10/23 04:05:01;;;;;;;13.33;7.47;;;;;;;11.58;100.00;100959.75;5007167;29;20513;-73
2022/10/23 04:07:32;;;;;;;16.50;8.27;;;;;;;11.57;100.00;100961.47;5008332;29;20126;-72
2022/10/23 04:10:05;;;;;;;21.00;9.10;;;;;;;11.55;100.00;100949.34;5008129;29;20043;-72
2022/10/23 04:12:36;;;;;;;23.42;8.30;;;;;;;11.51;100.00;100943.28;5008666;29;20035;-73
2022/10/23 04:15:08;;;;;;;16.73;8.77;;;;;;;11.53;100.00;100948.47;5008038;29;20498;-72
2022/10/23 04:17:39;;;;;;;18.73;7.90;;;;;;;11.52;100.00;100945.03;5007945;29;20395;-73
2022/10/23 04:20:10;;;;;;;17.07;8.67;;;;;;;11.51;100.00;100940.66;5007115;29;20130;-72
2022/10/23 04:22:42;;;;;;;16.53;8.70;;;;;;;11.50;100.00;100941.56;5007567;29;20067;-73
2022/10/23 04:25:15;;;;;;;14.67;8.13;;;;;;;11.52;100.00;100952.00;5006835;29;20466;-72
2022/10/23 04:27:47;;;;;;;15.77;9.20;;;;;;;11.50;100.00;100955.47;5007501;29;20383;-72
2022/10/23 04:30:18;;;;;;;17.13;7.63;;;;;;;11.52;100.00;100954.59;5007065;29;20039;-74
2022/10/23 04:32:50;;;;;;;13.37;7.77;;;;;;;11.49;100.00;100947.66;5006759;29;20042;-73
2022/10/23 04:35:22;;;;;;;14.82;8.25;;;;;;;11.50;100.00;100946.78;5005701;29;20046;-74
2022/10/23 04:37:53;;;;;;;18.63;8.37;;;;;;;11.50;100.00;100954.63;5006075;29;20107;-74
2022/10/23 04:40:24;;;;;;;17.00;7.83;;;;;;;11.45;100.00;100943.41;5010012;29;20039;-74
2022/10/23 04:42:56;;;;;;;12.90;7.73;;;;;;;11.46;100.00;100945.97;5013317;29;20039;-73
2022/10/23 04:45:27;;;;;;;13.57;7.77;;;;;;;11.49;100.00;100938.13;5020225;29;20038;-74
2022/10/23 04:47:58;;;;;;;14.23;7.67;;;;;;;11.50;100.00;100938.97;5018880;29;20111;-73
2022/10/23 04:50:30;;;;;;;20.13;7.87;;;;;;;11.51;100.00;100938.06;5006673;29;20070;-73
2022/10/23 04:53:01;;;;;;;15.03;8.27;;;;;;;11.52;100.00;100938.94;5007301;29;20447;-73
2022/10/23 04:55:33;;;;;;;15.33;7.17;;;;;;;11.53;100.00;100935.44;5007308;29;20445;-72
2022/10/23 04:58:04;;;;;;;12.83;7.97;;;;;;;11.52;100.00;100931.97;5007358;29;20459;-72
2022/10/23 05:00:35;;;;;;;15.53;7.53;;;;;;;11.54;100.00;100937.16;5007212;29;20471;-73
2022/10/23 05:03:07;;;;;;;16.17;7.83;;;;;;;11.55;100.00;100928.47;5005680;29;20043;-72
2022/10/23 05:05:38;;;;;;;20.10;7.97;;;;;;;11.55;100.00;100931.94;5006941;29;20126;-73
2022/10/23 05:08:10;;;;;;;12.23;7.53;;;;;;;11.55;100.00;100928.47;5007182;29;20030;-73
2022/10/23 05:10:41;;;;;;;14.57;7.75;;;;;;;11.60;100.00;100927.50;5006252;29;20035;-74
2022/10/23 05:13:13;;;;;;;14.27;8.37;;;;;;;11.62;100.00;100932.69;5005361;29;20035;-73
2022/10/23 05:15:49;;;;;;;12.23;7.50;;;;;;;11.62;100.00;100927.47;5005834;29;20032;-72
2022/10/23 05:18:27;;;;;;;12.45;7.22;;;;;;;11.65;100.00;100922.22;5005939;29;20042;-73
2022/10/23 05:21:04;;;;;;;15.35;8.10;;;;;;;11.64;100.00;100916.13;5006103;29;20428;-72
2022/10/23 05:23:37;;;;;;;17.20;7.38;;;;;;;11.62;100.00;100911.81;5006478;29;20035;-72
2022/10/23 05:26:08;;;;;;;15.25;7.10;;;;;;;11.65;100.00;100911.75;5006493;29;20142;-72
2022/10/23 05:28:40;;;;;;;13.70;7.20;;;;;;;11.67;100.00;100917.81;5006610;29;20368;-72
2022/10/23 05:31:11;;;;;;;14.27;6.77;;;;;;;11.66;100.00;100914.34;5005982;29;20143;-72
2022/10/23 05:33:43;;;;;;;11.90;6.63;;;;;;;11.64;100.00;100916.13;5006110;29;20035;-72
2022/10/23 05:36:15;;;;;;;13.30;6.77;;;;;;;11.66;100.00;100909.13;5005915;29;20057;-73
2022/10/23 05:38:47;;;;;;;12.93;6.13;;;;;;;11.65;100.00;100904.78;5005813;29;20101;-73
2022/10/23 05:41:18;;;;;;;13.70;6.90;;;;;;;11.64;100.00;100900.47;5006101;29;20035;-73
2022/10/23 05:43:50;;;;;;;17.80;6.93;;;;;;;11.62;100.00;100903.97;5006030;29;20147;-74
2022/10/23 05:46:22;;;;;;;12.83;6.70;;;;;;;11.60;100.00;100904.00;5005970;29;20403;-73
2022/10/23 05:48:53;;;;;;;12.15;6.55;;;;;;;11.63;100.00;100900.50;5005691;29;20491;-73
2022/10/23 05:51:25;;;;;;;12.60;7.03;;;;;;;11.61;100.00;100895.28;5005580;29;20035;-73
2022/10/23 05:53:56;;;;;;;18.53;7.33;;;;;;;11.62;100.00;100894.41;5005666;29;20038;-73
2022/10/23 05:56:27;;;;;;;12.03;6.47;;;;;;;11.64;100.00;100895.25;5005590;29;20091;-72
2022/10/23 05:58:59;;;;;;;16.70;6.10;;;;;;;11.66;100.00;100903.06;5005899;29;20117;-73
2022/10/23 06:01:30;;;;;;;15.10;7.43;;;;;;;11.70;100.00;100890.81;5005562;29;20026;-73
2022/10/23 06:04:03;;;;;;;15.70;7.10;;;;;;;11.70;100.00;100883.81;5005632;29;20165;-73
2022/10/23 06:06:35;;;;;;;13.88;6.53;;;;;;;11.74;100.00;100885.50;5005657;29;20156;-73
2022/10/23 06:09:06;;;;;;;11.18;5.88;;;;;;;11.75;100.00;100886.38;5004453;29;20507;-73
2022/10/23 06:11:38;;;;;;;17.13;6.73;;;;;;;11.75;100.00;100879.41;5004347;29;20043;-73
2022/10/23 06:14:09;;;;;;;13.17;6.37;;;;;;;11.77;100.00;100874.13;5005684;29;20062;-73
2022/10/23 06:16:41;;;;;;;14.73;6.00;;;;;;;11.78;100.00;100886.31;5005204;29;20421;-73
2022/10/23 06:19:12;;;;;;;16.30;6.80;;;;;;;11.81;100.00;100876.69;5005046;29;20463;-73
2022/10/23 06:21:44;;;;;;;14.63;6.10;;;;;;;11.83;100.00;100880.16;5004094;29;20425;-73
2022/10/23 06:24:15;;;;;;;13.77;5.93;;;;;;;11.86;100.00;100872.25;5005538;29;20041;-73
2022/10/23 06:26:46;;;;;;;12.17;6.20;;;;;;;11.90;100.00;100870.47;5004886;29;20114;-72
2022/10/23 06:29:18;;;;;;;15.07;6.30;;;;;;;11.92;100.00;100863.47;5005704;29;20049;-73
2022/10/23 06:31:49;;;;;;;11.70;5.90;;;;;;;11.97;100.00;100869.47;5005601;29;20038;-73
2022/10/23 06:34:21;;;;;;;11.30;6.50;;;;;;;11.98;100.00;100865.13;5005782;29;20126;-73
2022/10/23 06:36:52;;;;;;;13.27;6.67;;;;;;;12.01;100.00;100862.44;5006102;29;20042;-73
2022/10/23 06:39:23;;;;;;;14.23;6.33;;;;;;;12.04;100.00;100855.44;5005180;29;20061;-73
2022/10/23 06:41:55;;;;;;;11.67;6.13;;;;;;;12.08;100.00;100855.38;5005570;29;20436;-73
2022/10/23 06:44:26;;;;;;;9.33;5.90;;;;;;;12.12;100.00;100854.41;5006127;29;20491;-73
2022/10/23 06:46:59;;;;;;;10.10;5.57;;;;;;;12.10;100.00;100835.31;5005786;29;20501;-73
2022/10/23 06:49:30;;;;;;;14.40;6.05;;;;;;;12.12;100.00;100838.75;5005099;29;20047;-73
2022/10/23 06:52:02;;;;;;;13.87;5.33;;;;;;;12.16;100.00;100836.06;5005201;29;20035;-73
2022/10/23 06:54:33;;;;;;;11.27;5.43;;;;;;;12.21;100.00;100835.97;5003945;29;20046;-73
2022/10/23 06:57:05;;;;;;;9.43;5.17;;;;;;;12.22;100.00;100837.69;5005061;29;20453;-73
2022/10/23 06:59:36;;;;;;;12.43;6.00;;;;;;;12.27;100.00;100833.25;5005169;29;20027;-73
2022/10/23 07:02:08;;;;;;;12.67;5.30;;;;;;;12.30;100.00;100832.31;5004075;29;20075;-73
2022/10/23 07:04:40;;;;;;;11.60;5.30;;;;;;;12.34;100.00;100828.75;5005253;29;20035;-73
2022/10/23 07:07:11;;;;;;;14.20;5.37;;;;;;;12.37;100.00;100839.16;5004621;29;20043;-73
2022/10/23 07:09:42;;;;;;;11.17;4.83;;;;;;;12.40;100.00;100842.56;5004942;29;20428;-73
2022/10/23 07:12:14;;;;;;;19.33;5.87;;;;;;;12.45;100.00;100839.88;5003413;29;20035;-73
2022/10/23 07:14:45;;;;;;;14.83;5.13;;;;;;;12.49;100.00;100836.28;5004678;29;20092;-73
2022/10/23 07:17:16;;;;;;;10.63;5.00;;;;;;;12.53;100.00;100829.25;5004703;29;20541;-72
2022/10/23 07:19:48;;;;;;;13.07;4.03;;;;;;;12.56;100.00;100832.66;5004668;29;20027;-73
2022/10/23 07:22:19;;;;;;;14.60;4.80;;;;;;;12.61;100.00;100822.13;5004710;29;20174;-72
2022/10/23 07:24:50;;;;;;;12.73;4.83;;;;;;;12.65;100.00;100821.16;5004915;29;20092;-73
2022/10/23 07:27:22;;;;;;;11.20;4.13;;;;;;;12.69;100.00;100814.97;5004520;29;20043;-73
2022/10/23 07:29:53;;;;;;;8.27;3.90;;;;;;;12.74;100.00;100814.88;4988845;29;20094;-73
2022/10/23 07:32:27;;;;;;;12.17;4.30;;;;;;;12.79;100.00;100815.63;5004503;29;20035;-73
2022/10/23 07:34:58;;;;;;;13.50;5.10;;;;;;;12.84;100.00;100819.00;5004960;29;20107;-73
2022/10/23 07:37:30;;;;;;;11.60;4.73;;;;;;;12.90;100.00;100810.19;5004193;29;20043;-73
2022/10/23 07:40:03;;;;;;;11.47;4.13;;;;;;;12.95;100.00;100811.78;5007917;29;20315;-73
2022/10/23 07:42:34;;;;;;;9.77;4.25;;;;;;;13.01;100.00;100807.31;5008107;29;20386;-73
2022/10/23 07:45:07;;;;;;;16.50;4.10;;;;;;;13.06;100.00;100814.16;5007595;29;20056;-73
2022/10/23 07:47:38;;;;;;;8.00;3.95;;;;;;;13.10;100.00;100807.94;5008213;29;20073;-72
2022/10/23 07:50:10;;;;;;;14.47;5.13;;;;;;;13.16;100.00;100806.97;5007764;29;20035;-72
2022/10/23 07:52:41;;;;;;;14.40;6.10;;;;;;;13.22;100.00;100808.59;5008336;29;20087;-72
2022/10/23 07:55:13;;;;;;;12.60;4.40;;;;;;;13.27;100.00;100804.94;5008114;29;20045;-74
2022/10/23 07:57:44;;;;;;;9.70;5.73;;;;;;;13.32;100.00;100810.09;5008831;29;20046;-72
2022/10/23 08:00:16;;;;;;;10.83;5.13;;;;;;;13.39;100.00;100803.81;5008376;29;20043;-73
2022/10/23 08:02:47;;;;;;;12.57;5.17;;;;;;;13.46;100.00;100808.03;5008352;29;20034;-72
2022/10/23 08:05:19;;;;;;;9.33;4.60;;;;;;;13.53;100.00;100807.88;5008454;29;20043;-70
2022/10/23 08:07:50;;;;;;;9.93;4.70;;;;;;;13.59;100.00;100805.97;5009410;29;20408;-72
2022/10/23 08:10:22;;;;;;;8.17;4.67;;;;;;;13.68;100.00;100804.88;5009031;29;20066;-71
2022/10/23 08:12:53;;;;;;;16.03;5.77;;;;;;;13.77;100.00;100804.63;5007551;29;20467;-72
2022/10/23 08:15:26;;;;;;;10.47;4.70;;;;;;;13.81;100.00;100802.78;5007510;29;20034;-72
2022/10/23 08:17:57;;;;;;;13.80;5.35;;;;;;;13.91;100.00;100799.03;5011831;29;20035;-72
2022/10/23 08:20:28;;;;;;;12.20;5.70;;;;;;;13.94;100.00;100792.84;5013143;29;20042;-72
2022/10/23 08:23:00;;;;;;;9.13;4.07;;;;;;;14.01;100.00;100802.28;5017294;29;20054;-74
2022/10/23 08:25:32;;;;;;;11.73;6.60;;;;;;;14.08;100.00;100795.97;5017930;29;20039;-73
2022/10/23 08:28:05;;;;;;;14.77;5.78;;;;;;;14.15;100.00;100796.66;5013211;29;20067;-72
2022/10/23 08:30:36;;;;;;;10.48;4.72;;;;;;;14.14;100.00;100790.56;5009518;29;20039;-72
2022/10/23 08:33:08;;;;;;;10.73;4.73;;;;;;;14.13;100.00;100796.69;5007784;29;20089;-73
2022/10/23 08:35:39;;;;;;;10.43;4.60;;;;;;;14.10;100.00;100788.91;5006950;29;20468;-72
2022/10/23 08:38:11;;;;;;;9.93;4.00;;;;;;;14.06;100.00;100787.28;5005938;29;20518;-72
2022/10/23 08:40:44;;;;;;;14.43;4.33;;;;;;;14.07;100.00;100781.16;5006985;29;20038;-73
2022/10/23 08:43:36;;;;;;;8.57;4.03;;;;;;;14.08;100.00;100774.13;5007573;29;20512;-71
2022/10/23 08:46:14;;;;;;;8.95;4.53;;;;;;;14.09;100.00;100770.59;5007929;29;20368;-72
2022/10/23 08:49:26;;;;;;;17.65;4.90;;;;;;;14.17;100.00;100773.91;5006875;29;20039;-71
2022/10/23 08:52:01;;;;;;;10.25;4.50;;;;;;;14.18;100.00;100771.22;5006949;29;20039;-71
2022/10/23 08:54:39;;;;;;;7.93;4.18;;;;;;;14.28;100.00;100768.31;5007668;29;20062;-73
2022/10/23 08:57:16;;;;;;;10.48;4.07;;;;;;;14.34;100.00;100765.53;5006107;29;20034;-70
2022/10/23 08:59:54;;;;;;;10.82;4.32;;;;;;;14.36;100.00;100764.59;5007191;29;20053;-72
2022/10/23 09:02:41;;;;;;;8.40;4.28;;;;;;;14.39;100.00;100764.50;5007905;29;20084;-72
2022/10/23 09:05:15;;;;;;;19.67;5.72;;;;;;;14.35;99.68;100756.78;5007102;29;20436;-73
2022/10/23 09:08:11;;;;;;;9.10;4.15;;;;;;;14.40;99.78;100760.13;5007456;29;20038;-72
2022/10/23 09:11:03;;;;;;;11.63;4.65;;;;;;;14.50;100.00;100750.22;5007604;29;20027;-71
2022/10/23 09:13:34;;;;;;;8.70;4.10;;;;;;;14.62;99.24;100746.38;5007695;29;20091;-72
2022/10/23 09:16:12;;;;;;;17.80;4.27;;;;;;;14.67;98.58;100740.09;5006973;29;20035;-70
2022/10/23 09:18:46;;;;;;;6.20;3.83;;;;;;;14.74;97.94;100748.66;5005343;29;20033;-71
2022/10/23 09:21:17;;;;;;;12.02;3.97;;;;;;;14.77;97.79;100740.69;5006848;29;20066;-73
2022/10/23 09:23:48;;;;;;;8.47;3.53;;;;;;;14.76;97.60;100737.22;5007020;29;20472;-71
2022/10/23 09:26:21;;;;;;;15.00;5.13;;;;;;;14.79;97.71;100730.13;5005397;29;20676;-71
2022/10/23 09:29:01;;;;;;;11.82;4.38;;;;;;;14.79;97.43;100725.75;5007051;29;20039;-72
2022/10/23 09:31:33;;;;;;;9.60;5.00;;;;;;;14.82;97.66;100724.78;5007247;29;20060;-71
2022/10/23 09:34:05;;;;;;;10.33;3.97;;;;;;;14.85;97.57;100720.31;5006673;29;20035;-72
2022/10/23 09:36:49;;;;;;;10.75;4.25;;;;;;;14.85;98.22;100709.81;5006652;29;20034;-72
2022/10/23 09:39:27;;;;;;;6.70;3.78;;;;;;;14.90;97.88;100707.88;5006573;29;20106;-72
2022/10/23 09:42:01;;;;;;;11.20;4.05;;;;;;;14.91;97.39;100691.25;5004432;29;20033;-73
2022/10/23 09:44:33;;;;;;;15.45;4.78;;;;;;;14.99;97.28;100700.63;5006813;29;20065;-71
2022/10/23 09:47:12;;;;;;;16.73;4.10;;;;;;;15.03;96.93;100703.09;5007010;29;20367;-70
2022/10/23 09:49:51;;;;;;;11.93;4.07;;;;;;;15.04;96.69;100696.97;5007096;29;20123;-72
2022/10/23 09:52:29;;;;;;;13.88;4.28;;;;;;;15.05;96.82;100705.69;5006781;29;20046;-73
2022/10/23 09:55:17;;;;;;;8.38;3.63;;;;;;;15.14;96.09;100695.72;5005814;29;20421;-71
2022/10/23 09:57:49;;;;;;;8.38;3.55;;;;;;;15.26;96.33;100683.97;5006824;29;20027;-72
2022/10/23 10:00:24;;;;;;;9.75;3.83;;;;;;;15.43;95.76;100686.00;5006807;29;20039;-73
2022/10/23 10:02:59;;;;;;;10.05;3.67;;;;;;;15.48;94.54;100677.97;5005065;29;20121;-72
2022/10/23 10:05:33;;;;;;;9.90;3.38;;;;;;;15.49;95.11;100667.41;5006926;29;20452;-71
2022/10/23 10:08:16;;;;;;;11.27;4.68;;;;;;;15.53;95.01;100667.31;5004856;29;20038;-72
2022/10/23 10:11:13;;;;;;;10.27;3.92;;;;;;;15.60;94.90;100661.78;5006192;29;20031;-71
2022/10/23 10:14:03;;;;;;;10.68;3.78;;;;;;;15.65;94.74;100651.13;5006812;29;20033;-72
2022/10/23 10:16:48;;;;;;;9.93;4.53;;;;;;;15.61;94.57;100652.97;5005758;29;20037;-73
2022/10/23 10:19:47;;;;;;;10.88;5.38;;;;;;;15.63;94.38;100643.28;5005732;29;20429;-72
2022/10/23 10:22:41;;;;;;;13.50;4.00;;;;;;;15.66;94.46;100634.41;5006794;29;20035;-72
2022/10/23 10:25:22;;;;;;;14.35;4.30;;;;;;;15.69;93.91;100629.91;5005170;29;20080;-72
2022/10/23 10:28:19;;;;;;;9.77;3.88;;;;;;;15.80;93.40;100634.81;5006112;29;20455;-71
2022/10/23 10:31:24;;;;;;;9.70;3.58;;;;;;;15.97;93.36;100633.31;5006497;29;20034;-72
2022/10/23 10:34:09;;;;;;;11.98;4.05;;;;;;;16.03;91.50;100646.22;5006874;29;20348;-72
2022/10/23 10:36:54;;;;;;;10.52;4.28;;;;;;;16.20;91.65;100640.34;5006339;29;20053;-72
2022/10/23 10:40:07;;;;;;;7.78;4.15;;;;;;;16.34;90.49;100624.00;5006207;29;20035;-72
2022/10/23 10:42:57;;;;;;;6.55;3.80;;;;;;;16.51;88.81;100623.34;5015555;29;20050;-71
2022/10/23 10:45:43;;;;;;;8.70;3.85;;;;;;;16.84;87.83;100618.50;5006288;29;20031;-71
2022/10/23 10:48:20;;;;;;;7.63;3.88;;;;;;;16.91;86.27;100619.97;5006038;29;20039;-72
2022/10/23 10:50:57;;;;;;;7.80;3.35;;;;;;;17.33;85.42;100614.72;5005386;29;20046;-72
2022/10/23 10:53:47;;;;;;;8.88;3.85;;;;;;;17.64;84.48;100614.22;5005782;29;20035;-70
2022/10/23 10:56:21;;;;;;;8.63;4.10;;;;;;;18.09;81.14;100606.94;5006512;29;20060;-70
2022/10/23 10:59:13;;;;;;;8.63;3.35;;;;;;;18.53;80.71;100598.66;5006409;29;20053;-71
2022/10/23 11:01:48;;;;;;;7.32;3.28;;;;;;;18.53;78.31;100594.25;5006109;29;20106;-71
2022/10/23 11:04:37;;;;;;;9.98;3.97;;;;;;;18.83;78.86;100608.63;5006539;29;20503;-71
2022/10/23 11:07:17;;;;;;;11.10;3.63;;;;;;;18.71;76.23;100610.09;5005252;29;20074;-71
2022/10/23 11:09:49;;;;;;;7.50;3.80;;;;;;;18.54;76.60;100606.50;5005703;29;20031;-71
2022/10/23 11:12:23;;;;;;;7.57;3.50;;;;;;;18.31;78.13;100604.13;4989439;29;20031;-71
2022/10/23 11:14:55;;;;;;;8.27;3.03;;;;;;;18.39;79.05;100589.63;5009002;29;20093;-71
2022/10/23 11:17:36;;;;;;;14.50;4.73;;;;;;;18.44;77.62;100596.47;5009048;29;20054;-71
2022/10/23 11:20:23;;;;;;;8.00;3.85;;;;;;;18.72;76.65;100599.47;5008485;29;20417;-71
2022/10/23 11:23:16;;;;;;;5.55;3.35;;;;;;;19.04;76.63;100591.72;5009020;29;20129;-71
2022/10/23 11:26:09;;;;;;;8.52;3.45;;;;;;;18.97;74.69;100579.78;5007391;29;20164;-71
2022/10/23 11:29:08;;;;;;;8.27;3.50;;;;;;;19.07;74.55;100578.34;5007931;29;20222;-70
2022/10/23 11:32:17;;;;;;;13.57;3.38;;;;;;;19.15;76.35;100570.03;5008863;29;20026;-71
2022/10/23 11:35:03;;;;;;;7.95;3.63;;;;;;;19.33;74.14;100557.63;5008522;29;20065;-72
2022/10/23 11:37:34;;;;;;;8.82;3.38;;;;;;;19.42;71.97;100548.38;5008609;29;20058;-71
2022/10/23 11:40:06;;;;;;;9.90;3.47;;;;;;;19.53;71.84;100548.66;5008189;29;20039;-71
2022/10/23 11:42:40;;;;;;;7.27;2.93;;;;;;;19.66;72.54;100546.19;5008244;29;20059;-71
2022/10/23 11:45:31;;;;;;;5.63;3.08;;;;;;;20.04;72.13;100536.19;5008835;29;20023;-72
2022/10/23 11:48:04;;;;;;;7.40;3.58;;;;;;;20.24;68.76;100536.84;5008658;29;20050;-72
2022/10/23 11:50:44;;;;;;;7.40;3.13;;;;;;;20.54;69.31;100525.38;5008276;29;20039;-70
2022/10/23 11:53:31;;;;;;;13.20;3.95;;;;;;;20.59;69.12;100515.38;5008643;29;20103;-71